sensor_id;sensor_type;location;lat;lon;timestamp;pressure;altitude;pressure_sealevel;temperature;humidity
62600;BME280;48671;48.922;2.346;2023-07-22T00:00:23;101431.69;;;23.34;33.41
62600;BME280;48671;48.922;2.346;2023-07-22T00:02:48;101436.91;;;23.24;33.62
62600;BME280;48671;48.922;2.346;2023-07-22T00:05:14;101448.88;;;23.19;33.40
62600;BME280;48671;48.922;2.346;2023-07-22T00:07:39;101442.09;;;23.14;33.32
62600;BME280;48671;48.922;2.346;2023-07-22T00:10:06;101446.56;;;23.14;33.86
62600;BME280;48671;48.922;2.346;2023-07-22T00:12:34;101433.69;;;23.09;33.85
62600;BME280;48671;48.922;2.346;2023-07-22T00:14:59;101423.78;;;23.00;34.14
62600;BME280;48671;48.922;2.346;2023-07-22T00:17:25;101426.56;;;22.99;34.12
62600;BME280;48671;48.922;2.346;2023-07-22T00:19:50;101422.47;;;22.95;33.84
62600;BME280;48671;48.922;2.346;2023-07-22T00:22:16;101426.19;;;22.81;33.70
62600;BME280;48671;48.922;2.346;2023-07-22T00:24:42;101435.97;;;22.80;34.92
62600;BME280;48671;48.922;2.346;2023-07-22T00:27:07;101420.75;;;22.71;34.47
62600;BME280;48671;48.922;2.346;2023-07-22T00:29:34;101425.97;;;22.73;34.29
62600;BME280;48671;48.922;2.346;2023-07-22T00:31:59;101426.66;;;22.75;34.81
62600;BME280;48671;48.922;2.346;2023-07-22T00:34:24;101417.75;;;22.76;34.22
62600;BME280;48671;48.922;2.346;2023-07-22T00:36:50;101425.09;;;22.72;34.41
62600;BME280;48671;48.922;2.346;2023-07-22T00:39:15;101422.31;;;22.62;34.70
62600;BME280;48671;48.922;2.346;2023-07-22T00:41:41;101425.09;;;22.61;34.79
62600;BME280;48671;48.922;2.346;2023-07-22T00:44:09;101434.03;;;22.71;34.97
62600;BME280;48671;48.922;2.346;2023-07-22T00:46:35;101411.38;;;22.67;35.14
62600;BME280;48671;48.922;2.346;2023-07-22T00:49:01;101426.81;;;22.73;34.67
62600;BME280;48671;48.922;2.346;2023-07-22T00:51:26;101416.69;;;22.67;35.09
62600;BME280;48671;48.922;2.346;2023-07-22T00:53:51;101410.78;;;22.63;35.15
62600;BME280;48671;48.922;2.346;2023-07-22T00:56:17;101412.81;;;22.71;34.71
62600;BME280;48671;48.922;2.346;2023-07-22T00:58:42;101414.63;;;22.71;34.84
62600;BME280;48671;48.922;2.346;2023-07-22T01:01:07;101407.97;;;22.65;35.21
62600;BME280;48671;48.922;2.346;2023-07-22T01:03:32;101411.84;;;22.72;35.31
62600;BME280;48671;48.922;2.346;2023-07-22T01:05:58;101412.44;;;22.76;35.32
62600;BME280;48671;48.922;2.346;2023-07-22T01:08:26;101408.00;;;22.76;35.18
62600;BME280;48671;48.922;2.346;2023-07-22T01:10:51;101407.25;;;22.74;34.76
62600;BME280;48671;48.922;2.346;2023-07-22T01:13:16;101409.31;;;22.71;34.74
62600;BME280;48671;48.922;2.346;2023-07-22T01:15:42;101400.53;;;22.70;35.47
62600;BME280;48671;48.922;2.346;2023-07-22T01:18:08;101400.63;;;22.68;35.84
62600;BME280;48671;48.922;2.346;2023-07-22T01:20:34;101410.66;;;22.76;35.47
62600;BME280;48671;48.922;2.346;2023-07-22T01:23:00;101405.69;;;22.72;35.37
62600;BME280;48671;48.922;2.346;2023-07-22T01:25:26;101407.97;;;22.65;35.14
62600;BME280;48671;48.922;2.346;2023-07-22T01:27:53;101394.34;;;22.58;35.71
62600;BME280;48671;48.922;2.346;2023-07-22T01:30:18;101400.63;;;22.57;35.73
62600;BME280;48671;48.922;2.346;2023-07-22T01:32:44;101388.59;;;22.53;35.51
62600;BME280;48671;48.922;2.346;2023-07-22T01:35:10;101400.88;;;22.54;35.18
62600;BME280;48671;48.922;2.346;2023-07-22T01:37:35;101392.41;;;22.49;35.36
62600;BME280;48671;48.922;2.346;2023-07-22T01:40:01;101378.09;;;22.40;35.53
62600;BME280;48671;48.922;2.346;2023-07-22T01:42:36;101384.84;;;22.44;35.69
62600;BME280;48671;48.922;2.346;2023-07-22T01:45:02;101372.56;;;22.43;36.02
62600;BME280;48671;48.922;2.346;2023-07-22T01:47:27;101388.22;;;22.58;36.23
62600;BME280;48671;48.922;2.346;2023-07-22T01:49:52;101386.41;;;22.58;35.87
62600;BME280;48671;48.922;2.346;2023-07-22T01:52:18;101383.88;;;22.57;36.42
62600;BME280;48671;48.922;2.346;2023-07-22T01:54:43;101391.38;;;22.63;35.58
62600;BME280;48671;48.922;2.346;2023-07-22T01:57:08;101396.91;;;22.60;35.76
62600;BME280;48671;48.922;2.346;2023-07-22T01:59:34;101385.31;;;22.50;36.01
62600;BME280;48671;48.922;2.346;2023-07-22T02:01:59;101374.47;;;22.41;35.59
62600;BME280;48671;48.922;2.346;2023-07-22T02:04:24;101385.31;;;22.38;35.41
62600;BME280;48671;48.922;2.346;2023-07-22T02:06:50;101385.56;;;22.35;36.10
62600;BME280;48671;48.922;2.346;2023-07-22T02:09:15;101384.22;;;22.30;36.02
62600;BME280;48671;48.922;2.346;2023-07-22T02:11:40;101398.34;;;22.30;35.89
62600;BME280;48671;48.922;2.346;2023-07-22T02:14:06;101386.41;;;22.25;36.19
62600;BME280;48671;48.922;2.346;2023-07-22T02:16:35;101390.84;;;22.24;36.49
62600;BME280;48671;48.922;2.346;2023-07-22T02:19:02;101391.19;;;22.19;36.13
62600;BME280;48671;48.922;2.346;2023-07-22T02:21:27;101388.69;;;22.18;36.63
62600;BME280;48671;48.922;2.346;2023-07-22T02:23:53;101386.97;;;22.17;36.13
62600;BME280;48671;48.922;2.346;2023-07-22T02:26:18;101402.22;;;22.13;36.59
62600;BME280;48671;48.922;2.346;2023-07-22T02:28:44;101389.75;;;22.15;37.19
62600;BME280;48671;48.922;2.346;2023-07-22T02:31:09;101383.13;;;22.21;36.89
62600;BME280;48671;48.922;2.346;2023-07-22T02:33:35;101386.41;;;22.25;36.59
62600;BME280;48671;48.922;2.346;2023-07-22T02:36:01;101377.09;;;22.19;36.88
62600;BME280;48671;48.922;2.346;2023-07-22T02:38:26;101385.78;;;22.21;37.12
62600;BME280;48671;48.922;2.346;2023-07-22T02:40:51;101373.84;;;22.15;37.38
62600;BME280;48671;48.922;2.346;2023-07-22T02:43:17;101385.06;;;22.19;37.00
62600;BME280;48671;48.922;2.346;2023-07-22T02:45:42;101396.03;;;22.26;36.76
62600;BME280;48671;48.922;2.346;2023-07-22T02:48:07;101392.03;;;22.20;36.64
62600;BME280;48671;48.922;2.346;2023-07-22T02:50:34;101383.00;;;22.23;36.82
62600;BME280;48671;48.922;2.346;2023-07-22T02:52:59;101392.66;;;22.24;37.35
62600;BME280;48671;48.922;2.346;2023-07-22T02:55:25;101391.09;;;22.21;36.93
62600;BME280;48671;48.922;2.346;2023-07-22T02:57:50;101393.00;;;22.19;37.00
62600;BME280;48671;48.922;2.346;2023-07-22T03:00:18;101389.75;;;22.15;37.10
62600;BME280;48671;48.922;2.346;2023-07-22T03:02:51;101390.59;;;22.16;37.01
62600;BME280;48671;48.922;2.346;2023-07-22T03:05:17;101388.88;;;22.15;37.20
62600;BME280;48671;48.922;2.346;2023-07-22T03:07:43;101394.41;;;22.12;36.77
62600;BME280;48671;48.922;2.346;2023-07-22T03:10:09;101390.53;;;22.05;37.69
62600;BME280;48671;48.922;2.346;2023-07-22T03:12:35;101409.47;;;22.11;36.94
62600;BME280;48671;48.922;2.346;2023-07-22T03:15:01;101406.22;;;22.08;37.15
62600;BME280;48671;48.922;2.346;2023-07-22T03:17:27;101407.50;;;22.02;37.07
62600;BME280;48671;48.922;2.346;2023-07-22T03:19:52;101407.38;;;22.04;37.31
62600;BME280;48671;48.922;2.346;2023-07-22T03:22:18;101388.22;;;21.89;37.31
62600;BME280;48671;48.922;2.346;2023-07-22T03:24:46;101397.28;;;21.97;37.60
62600;BME280;48671;48.922;2.346;2023-07-22T03:27:12;101390.16;;;21.98;37.66
62600;BME280;48671;48.922;2.346;2023-07-22T03:29:38;101394.66;;;22.09;37.25
62600;BME280;48671;48.922;2.346;2023-07-22T03:32:04;101388.97;;;22.02;37.92
62600;BME280;48671;48.922;2.346;2023-07-22T03:34:31;101408.72;;;22.09;37.47
62600;BME280;48671;48.922;2.346;2023-07-22T03:36:57;101403.41;;;21.98;37.48
62600;BME280;48671;48.922;2.346;2023-07-22T03:39:22;101402.19;;;21.91;37.42
62600;BME280;48671;48.922;2.346;2023-07-22T03:41:47;101407.00;;;21.86;37.20
62600;BME280;48671;48.922;2.346;2023-07-22T03:44:13;101406.84;;;21.87;37.87
62600;BME280;48671;48.922;2.346;2023-07-22T03:46:38;101420.84;;;21.89;37.92
62600;BME280;48671;48.922;2.346;2023-07-22T03:49:04;101415.69;;;21.88;37.91
62600;BME280;48671;48.922;2.346;2023-07-22T03:51:30;101413.25;;;21.85;37.75
62600;BME280;48671;48.922;2.346;2023-07-22T03:53:55;101401.53;;;21.76;38.09
62600;BME280;48671;48.922;2.346;2023-07-22T03:56:21;101410.00;;;21.81;38.04
62600;BME280;48671;48.922;2.346;2023-07-22T03:58:48;101410.09;;;21.80;37.56
62600;BME280;48671;48.922;2.346;2023-07-22T04:01:14;101402.59;;;21.73;37.99
62600;BME280;48671;48.922;2.346;2023-07-22T04:03:39;101407.91;;;21.73;37.90
62600;BME280;48671;48.922;2.346;2023-07-22T04:06:04;101415.13;;;21.71;37.93
62600;BME280;48671;48.922;2.346;2023-07-22T04:08:29;101408.94;;;21.60;38.14
62600;BME280;48671;48.922;2.346;2023-07-22T04:10:56;101410.00;;;21.57;38.16
62600;BME280;48671;48.922;2.346;2023-07-22T04:13:23;101407.81;;;21.51;38.62
62600;BME280;48671;48.922;2.346;2023-07-22T04:15:49;101407.72;;;21.53;38.38
62600;BME280;48671;48.922;2.346;2023-07-22T04:18:15;101399.47;;;21.44;37.54
62600;BME280;48671;48.922;2.346;2023-07-22T04:20:41;101394.00;;;21.35;38.09
62600;BME280;48671;48.922;2.346;2023-07-22T04:23:06;101399.47;;;21.32;38.60
62600;BME280;48671;48.922;2.346;2023-07-22T04:25:31;101398.66;;;21.31;38.51
62600;BME280;48671;48.922;2.346;2023-07-22T04:27:57;101394.03;;;21.22;38.50
62600;BME280;48671;48.922;2.346;2023-07-22T04:30:22;101387.78;;;21.23;38.89
62600;BME280;48671;48.922;2.346;2023-07-22T04:32:49;101403.72;;;21.34;39.12
62600;BME280;48671;48.922;2.346;2023-07-22T04:35:16;101404.88;;;21.43;38.60
62600;BME280;48671;48.922;2.346;2023-07-22T04:37:43;101392.41;;;21.32;38.30
62600;BME280;48671;48.922;2.346;2023-07-22T04:40:10;101395.91;;;21.33;38.82
62600;BME280;48671;48.922;2.346;2023-07-22T04:42:40;101403.00;;;21.32;38.90
62600;BME280;48671;48.922;2.346;2023-07-22T04:45:07;101408.97;;;21.23;38.64
62600;BME280;48671;48.922;2.346;2023-07-22T04:47:32;101408.22;;;21.21;39.10
62600;BME280;48671;48.922;2.346;2023-07-22T04:49:58;101418.31;;;21.16;38.82
62600;BME280;48671;48.922;2.346;2023-07-22T04:52:23;101421.78;;;21.16;39.11
62600;BME280;48671;48.922;2.346;2023-07-22T04:54:48;101423.06;;;21.11;38.94
62600;BME280;48671;48.922;2.346;2023-07-22T04:57:14;101414.69;;;21.17;39.64
62600;BME280;48671;48.922;2.346;2023-07-22T04:59:42;101421.66;;;21.18;38.54
62600;BME280;48671;48.922;2.346;2023-07-22T05:02:07;101428.41;;;21.22;39.14
62600;BME280;48671;48.922;2.346;2023-07-22T05:04:32;101410.38;;;21.16;39.17
62600;BME280;48671;48.922;2.346;2023-07-22T05:06:58;101420.47;;;21.22;38.87
62600;BME280;48671;48.922;2.346;2023-07-22T05:09:23;101417.00;;;21.21;38.70
62600;BME280;48671;48.922;2.346;2023-07-22T05:11:48;101401.72;;;21.25;38.99
62600;BME280;48671;48.922;2.346;2023-07-22T05:14:13;101409.59;;;21.26;38.76
62600;BME280;48671;48.922;2.346;2023-07-22T05:16:39;101423.66;;;21.27;39.11
62600;BME280;48671;48.922;2.346;2023-07-22T05:19:04;101412.09;;;21.28;38.60
62600;BME280;48671;48.922;2.346;2023-07-22T05:21:30;101404.28;;;21.26;39.02
62600;BME280;48671;48.922;2.346;2023-07-22T05:23:55;101401.88;;;21.23;38.87
62600;BME280;48671;48.922;2.346;2023-07-22T05:26:21;101396.44;;;21.25;39.63
62600;BME280;48671;48.922;2.346;2023-07-22T05:28:46;101400.03;;;21.37;38.77
62600;BME280;48671;48.922;2.346;2023-07-22T05:31:11;101412.94;;;21.41;38.93
62600;BME280;48671;48.922;2.346;2023-07-22T05:33:37;101403.66;;;21.36;38.27
62600;BME280;48671;48.922;2.346;2023-07-22T05:36:03;101415.50;;;21.30;38.63
62600;BME280;48671;48.922;2.346;2023-07-22T05:38:28;101406.31;;;21.23;39.38
62600;BME280;48671;48.922;2.346;2023-07-22T05:40:53;101407.25;;;21.22;39.03
62600;BME280;48671;48.922;2.346;2023-07-22T05:43:19;101414.44;;;21.33;38.87
62600;BME280;48671;48.922;2.346;2023-07-22T05:45:44;101409.97;;;21.46;38.72
62600;BME280;48671;48.922;2.346;2023-07-22T05:48:09;101404.84;;;21.56;38.75
62600;BME280;48671;48.922;2.346;2023-07-22T05:50:35;101403.75;;;21.58;38.49
62600;BME280;48671;48.922;2.346;2023-07-22T05:53:00;101390.41;;;21.60;38.47
62600;BME280;48671;48.922;2.346;2023-07-22T05:55:25;101400.41;;;21.67;38.40
62600;BME280;48671;48.922;2.346;2023-07-22T05:57:51;101407.81;;;21.75;38.31
62600;BME280;48671;48.922;2.346;2023-07-22T06:00:17;101412.38;;;21.84;38.32
62600;BME280;48671;48.922;2.346;2023-07-22T06:02:42;101407.59;;;21.89;38.42
62600;BME280;48671;48.922;2.346;2023-07-22T06:05:08;101400.38;;;21.91;38.68
62600;BME280;48671;48.922;2.346;2023-07-22T06:07:33;101417.97;;;22.04;38.15
62600;BME280;48671;48.922;2.346;2023-07-22T06:09:58;101401.84;;;22.07;38.47
62600;BME280;48671;48.922;2.346;2023-07-22T06:12:24;101415.59;;;22.12;37.93
62600;BME280;48671;48.922;2.346;2023-07-22T06:14:49;101417.75;;;22.07;38.72
62600;BME280;48671;48.922;2.346;2023-07-22T06:17:15;101418.25;;;22.12;38.91
62600;BME280;48671;48.922;2.346;2023-07-22T06:19:40;101399.66;;;22.01;38.81
62600;BME280;48671;48.922;2.346;2023-07-22T06:22:05;101415.38;;;22.15;38.81
62600;BME280;48671;48.922;2.346;2023-07-22T06:24:31;101395.25;;;22.12;39.01
62600;BME280;48671;48.922;2.346;2023-07-22T06:26:56;101401.22;;;22.27;38.18
62600;BME280;48671;48.922;2.346;2023-07-22T06:29:21;101395.69;;;22.30;38.72
62600;BME280;48671;48.922;2.346;2023-07-22T06:31:47;101409.31;;;22.48;38.95
62600;BME280;48671;48.922;2.346;2023-07-22T06:34:12;101409.44;;;22.47;38.91
62600;BME280;48671;48.922;2.346;2023-07-22T06:36:38;101409.53;;;22.45;38.51
62600;BME280;48671;48.922;2.346;2023-07-22T06:39:03;101407.72;;;22.46;39.27
62600;BME280;48671;48.922;2.346;2023-07-22T06:41:29;101417.25;;;22.48;40.06
62600;BME280;48671;48.922;2.346;2023-07-22T06:43:54;101413.63;;;22.49;40.11
62600;BME280;48671;48.922;2.346;2023-07-22T06:46:20;101408.94;;;22.53;40.92
62600;BME280;48671;48.922;2.346;2023-07-22T06:48:47;101407.38;;;22.61;41.25
62600;BME280;48671;48.922;2.346;2023-07-22T06:51:12;101413.53;;;22.62;41.15
62600;BME280;48671;48.922;2.346;2023-07-22T06:53:38;101401.34;;;22.59;41.10
62600;BME280;48671;48.922;2.346;2023-07-22T06:56:03;101402.44;;;22.68;41.28
62600;BME280;48671;48.922;2.346;2023-07-22T06:58:29;101404.38;;;22.77;41.36
62600;BME280;48671;48.922;2.346;2023-07-22T07:00:55;101405.81;;;22.70;40.64
62600;BME280;48671;48.922;2.346;2023-07-22T07:03:21;101406.16;;;22.65;42.10
62600;BME280;48671;48.922;2.346;2023-07-22T07:05:54;101400.41;;;22.60;41.62
62600;BME280;48671;48.922;2.346;2023-07-22T07:08:21;101411.00;;;22.60;42.06
62600;BME280;48671;48.922;2.346;2023-07-22T07:10:46;101413.28;;;22.54;41.17
62600;BME280;48671;48.922;2.346;2023-07-22T07:13:12;101397.25;;;22.55;41.89
62600;BME280;48671;48.922;2.346;2023-07-22T07:15:37;101394.03;;;22.63;41.71
62600;BME280;48671;48.922;2.346;2023-07-22T07:18:02;101402.44;;;22.68;42.44
62600;BME280;48671;48.922;2.346;2023-07-22T07:20:28;101406.41;;;22.74;41.57
62600;BME280;48671;48.922;2.346;2023-07-22T07:22:53;101397.88;;;22.70;42.16
62600;BME280;48671;48.922;2.346;2023-07-22T07:25:18;101407.03;;;22.77;41.73
62600;BME280;48671;48.922;2.346;2023-07-22T07:27:44;101408.69;;;22.78;41.59
62600;BME280;48671;48.922;2.346;2023-07-22T07:30:09;101417.88;;;22.74;41.81
62600;BME280;48671;48.922;2.346;2023-07-22T07:32:35;101397.38;;;22.65;42.03
62600;BME280;48671;48.922;2.346;2023-07-22T07:35:00;101406.19;;;22.77;41.34
62600;BME280;48671;48.922;2.346;2023-07-22T07:37:26;101406.28;;;22.86;41.23
62600;BME280;48671;48.922;2.346;2023-07-22T07:39:51;101408.34;;;22.94;41.42
62600;BME280;48671;48.922;2.346;2023-07-22T07:42:16;101412.00;;;22.93;41.14
62600;BME280;48671;48.922;2.346;2023-07-22T07:44:42;101416.06;;;22.97;40.96
62600;BME280;48671;48.922;2.346;2023-07-22T07:47:07;101411.84;;;22.95;41.33
62600;BME280;48671;48.922;2.346;2023-07-22T07:49:33;101415.56;;;22.92;41.37
62600;BME280;48671;48.922;2.346;2023-07-22T07:51:58;101419.72;;;22.96;41.32
62600;BME280;48671;48.922;2.346;2023-07-22T07:54:25;101413.19;;;23.00;41.56
62600;BME280;48671;48.922;2.346;2023-07-22T07:56:50;101420.91;;;23.03;41.52
62600;BME280;48671;48.922;2.346;2023-07-22T07:59:15;101411.97;;;23.16;40.96
62600;BME280;48671;48.922;2.346;2023-07-22T08:01:41;101410.34;;;23.24;41.15
62600;BME280;48671;48.922;2.346;2023-07-22T08:04:08;101413.81;;;23.36;40.30
62600;BME280;48671;48.922;2.346;2023-07-22T08:06:33;101410.69;;;23.31;40.98
62600;BME280;48671;48.922;2.346;2023-07-22T08:08:59;101410.53;;;23.44;40.37
62600;BME280;48671;48.922;2.346;2023-07-22T08:11:24;101407.38;;;23.50;40.24
62600;BME280;48671;48.922;2.346;2023-07-22T08:13:49;101401.88;;;23.42;40.14
62600;BME280;48671;48.922;2.346;2023-07-22T08:16:16;101406.06;;;23.44;40.63
62600;BME280;48671;48.922;2.346;2023-07-22T08:18:42;101401.72;;;23.54;40.43
62600;BME280;48671;48.922;2.346;2023-07-22T08:21:07;101407.31;;;23.72;39.79
62600;BME280;48671;48.922;2.346;2023-07-22T08:23:33;101405.31;;;23.86;39.65
62600;BME280;48671;48.922;2.346;2023-07-22T08:25:59;101408.81;;;23.86;39.25
62600;BME280;48671;48.922;2.346;2023-07-22T08:28:24;101410.78;;;23.84;38.70
62600;BME280;48671;48.922;2.346;2023-07-22T08:30:50;101411.22;;;23.89;38.77
62600;BME280;48671;48.922;2.346;2023-07-22T08:33:18;101403.38;;;23.88;38.85
62600;BME280;48671;48.922;2.346;2023-07-22T08:35:44;101404.34;;;23.87;38.55
62600;BME280;48671;48.922;2.346;2023-07-22T08:38:10;101402.19;;;23.80;38.30
62600;BME280;48671;48.922;2.346;2023-07-22T08:40:36;101397.28;;;23.76;38.04
62600;BME280;48671;48.922;2.346;2023-07-22T08:43:04;101402.16;;;23.71;38.23
62600;BME280;48671;48.922;2.346;2023-07-22T08:45:31;101403.44;;;23.76;38.17
62600;BME280;48671;48.922;2.346;2023-07-22T08:48:03;101399.53;;;23.80;38.28
62600;BME280;48671;48.922;2.346;2023-07-22T08:53:15;101384.72;;;24.20;38.09
62600;BME280;48671;48.922;2.346;2023-07-22T08:55:41;101392.69;;;24.41;37.26
62600;BME280;48671;48.922;2.346;2023-07-22T08:58:11;101387.56;;;24.59;37.53
62600;BME280;48671;48.922;2.346;2023-07-22T09:00:38;101389.59;;;24.76;37.07
62600;BME280;48671;48.922;2.346;2023-07-22T09:03:04;101383.78;;;24.92;37.12
62600;BME280;48671;48.922;2.346;2023-07-22T09:05:32;101388.81;;;25.05;36.00
62600;BME280;48671;48.922;2.346;2023-07-22T09:07:58;101388.47;;;25.19;35.95
62600;BME280;48671;48.922;2.346;2023-07-22T09:10:24;101381.75;;;25.25;35.54
62600;BME280;48671;48.922;2.346;2023-07-22T09:12:52;101377.84;;;25.38;35.52
62600;BME280;48671;48.922;2.346;2023-07-22T09:15:18;101375.28;;;25.37;35.46
62600;BME280;48671;48.922;2.346;2023-07-22T09:17:44;101374.34;;;25.48;35.61
62600;BME280;48671;48.922;2.346;2023-07-22T09:20:11;101379.06;;;25.54;36.01
62600;BME280;48671;48.922;2.346;2023-07-22T09:22:43;101375.44;;;25.64;35.46
62600;BME280;48671;48.922;2.346;2023-07-22T09:25:16;101367.03;;;25.59;34.70
62600;BME280;48671;48.922;2.346;2023-07-22T09:27:42;101376.13;;;25.57;35.08
62600;BME280;48671;48.922;2.346;2023-07-22T09:30:24;101373.19;;;25.50;34.99
62600;BME280;48671;48.922;2.346;2023-07-22T09:32:51;101373.75;;;25.54;34.90
62600;BME280;48671;48.922;2.346;2023-07-22T09:35:17;101366.19;;;25.59;35.07
62600;BME280;48671;48.922;2.346;2023-07-22T09:37:43;101355.69;;;25.67;34.07
62600;BME280;48671;48.922;2.346;2023-07-22T09:40:17;101365.47;;;25.86;32.23
62600;BME280;48671;48.922;2.346;2023-07-22T09:42:48;101359.44;;;26.03;33.08
62600;BME280;48671;48.922;2.346;2023-07-22T09:45:14;101357.69;;;26.12;32.48
62600;BME280;48671;48.922;2.346;2023-07-22T09:47:41;101359.75;;;26.28;32.61
62600;BME280;48671;48.922;2.346;2023-07-22T09:50:06;101357.63;;;26.31;31.48
62600;BME280;48671;48.922;2.346;2023-07-22T09:52:32;101349.25;;;26.26;31.45
62600;BME280;48671;48.922;2.346;2023-07-22T09:54:59;101362.31;;;26.20;31.75
62600;BME280;48671;48.922;2.346;2023-07-22T09:57:24;101349.38;;;26.25;32.25
62600;BME280;48671;48.922;2.346;2023-07-22T09:59:51;101344.72;;;26.36;32.11
62600;BME280;48671;48.922;2.346;2023-07-22T10:02:18;101341.00;;;26.20;31.67
62600;BME280;48671;48.922;2.346;2023-07-22T10:04:46;101351.88;;;26.36;32.21
62600;BME280;48671;48.922;2.346;2023-07-22T10:07:14;101338.50;;;26.46;31.18
62600;BME280;48671;48.922;2.346;2023-07-22T10:09:41;101350.22;;;26.63;31.44
62600;BME280;48671;48.922;2.346;2023-07-22T10:12:07;101345.91;;;26.79;31.14
62600;BME280;48671;48.922;2.346;2023-07-22T10:14:34;101354.00;;;26.88;30.96
62600;BME280;48671;48.922;2.346;2023-07-22T10:17:00;101351.75;;;26.93;30.46
62600;BME280;48671;48.922;2.346;2023-07-22T10:19:25;101361.34;;;26.85;31.21
62600;BME280;48671;48.922;2.346;2023-07-22T10:21:51;101345.31;;;26.85;31.14
62600;BME280;48671;48.922;2.346;2023-07-22T10:24:17;101354.34;;;26.75;30.64
62600;BME280;48671;48.922;2.346;2023-07-22T10:26:43;101360.28;;;26.78;31.28
62600;BME280;48671;48.922;2.346;2023-07-22T10:29:11;101350.03;;;26.74;31.44
62600;BME280;48671;48.922;2.346;2023-07-22T10:31:37;101348.47;;;26.71;31.13
62600;BME280;48671;48.922;2.346;2023-07-22T10:34:03;101345.81;;;26.71;31.40
62600;BME280;48671;48.922;2.346;2023-07-22T10:36:29;101342.84;;;26.74;31.17
62600;BME280;48671;48.922;2.346;2023-07-22T10:38:56;101341.97;;;26.83;31.15
62600;BME280;48671;48.922;2.346;2023-07-22T10:41:22;101334.66;;;26.85;31.42
62600;BME280;48671;48.922;2.346;2023-07-22T10:43:55;101351.88;;;26.91;31.67
62600;BME280;48671;48.922;2.346;2023-07-22T10:46:36;101339.22;;;26.75;30.87
62600;BME280;48671;48.922;2.346;2023-07-22T10:49:12;101331.63;;;26.71;31.43
62600;BME280;48671;48.922;2.346;2023-07-22T10:51:38;101334.00;;;26.74;31.66
62600;BME280;48671;48.922;2.346;2023-07-22T10:54:11;101329.59;;;26.82;31.64
62600;BME280;48671;48.922;2.346;2023-07-22T10:56:37;101326.69;;;26.94;31.36
62600;BME280;48671;48.922;2.346;2023-07-22T10:59:02;101328.41;;;26.95;30.82
62600;BME280;48671;48.922;2.346;2023-07-22T11:09:05;101302.06;;;26.82;30.68
62600;BME280;48671;48.922;2.346;2023-07-22T11:11:35;101317.97;;;27.19;29.91
62600;BME280;48671;48.922;2.346;2023-07-22T11:14:14;101302.09;;;27.36;29.85
62600;BME280;48671;48.922;2.346;2023-07-22T11:16:42;101301.31;;;27.43;29.18
62600;BME280;48671;48.922;2.346;2023-07-22T11:19:07;101284.84;;;27.56;28.96
62600;BME280;48671;48.922;2.346;2023-07-22T11:21:32;101293.22;;;27.79;27.75
62600;BME280;48671;48.922;2.346;2023-07-22T11:23:58;101290.31;;;27.90;27.69
62600;BME280;48671;48.922;2.346;2023-07-22T11:26:23;101280.06;;;27.86;26.90
62600;BME280;48671;48.922;2.346;2023-07-22T11:28:48;101284.25;;;27.88;26.96
62600;BME280;48671;48.922;2.346;2023-07-22T11:31:14;101284.63;;;27.93;27.21
62600;BME280;48671;48.922;2.346;2023-07-22T11:33:40;101267.97;;;27.99;26.81
62600;BME280;48671;48.922;2.346;2023-07-22T11:36:06;101272.88;;;28.20;27.18
62600;BME280;48671;48.922;2.346;2023-07-22T11:38:32;101280.22;;;28.53;26.93
62600;BME280;48671;48.922;2.346;2023-07-22T11:40:58;101284.44;;;28.55;26.79
62600;BME280;48671;48.922;2.346;2023-07-22T11:43:23;101280.22;;;28.53;26.64
62600;BME280;48671;48.922;2.346;2023-07-22T11:45:49;101270.91;;;28.65;27.19
62600;BME280;48671;48.922;2.346;2023-07-22T11:48:14;101277.28;;;28.72;26.73
62600;BME280;48671;48.922;2.346;2023-07-22T11:50:39;101269.88;;;28.66;26.70
62600;BME280;48671;48.922;2.346;2023-07-22T11:53:06;101267.84;;;28.60;26.79
62600;BME280;48671;48.922;2.346;2023-07-22T11:55:34;101280.75;;;28.64;26.18
62600;BME280;48671;48.922;2.346;2023-07-22T11:58:00;101278.81;;;28.32;26.08
62600;BME280;48671;48.922;2.346;2023-07-22T12:00:25;101272.69;;;28.14;27.43
62600;BME280;48671;48.922;2.346;2023-07-22T12:02:50;101264.66;;;28.14;27.54
62600;BME280;48671;48.922;2.346;2023-07-22T12:05:21;101262.69;;;28.24;27.24
62600;BME280;48671;48.922;2.346;2023-07-22T12:07:47;101264.63;;;28.40;26.96
62600;BME280;48671;48.922;2.346;2023-07-22T12:10:12;101262.31;;;28.45;26.21
62600;BME280;48671;48.922;2.346;2023-07-22T12:12:47;101266.06;;;28.34;26.70
62600;BME280;48671;48.922;2.346;2023-07-22T12:15:19;101262.66;;;28.42;27.04
62600;BME280;48671;48.922;2.346;2023-07-22T12:18:00;101257.00;;;28.69;27.04
62600;BME280;48671;48.922;2.346;2023-07-22T12:20:30;101255.88;;;28.88;26.85
62600;BME280;48671;48.922;2.346;2023-07-22T12:22:57;101250.19;;;29.16;26.39
62600;BME280;48671;48.922;2.346;2023-07-22T12:25:23;101248.00;;;29.44;25.92
62600;BME280;48671;48.922;2.346;2023-07-22T12:27:49;101238.09;;;29.53;26.34
62600;BME280;48671;48.922;2.346;2023-07-22T12:30:15;101252.53;;;29.44;25.49
62600;BME280;48671;48.922;2.346;2023-07-22T12:32:41;101238.47;;;29.42;26.44
62600;BME280;48671;48.922;2.346;2023-07-22T12:35:07;101227.59;;;29.43;26.35
62600;BME280;48671;48.922;2.346;2023-07-22T12:37:33;101238.78;;;29.47;25.95
62600;BME280;48671;48.922;2.346;2023-07-22T12:39:59;101236.13;;;29.30;25.68
62600;BME280;48671;48.922;2.346;2023-07-22T12:42:24;101227.09;;;29.31;26.15
62600;BME280;48671;48.922;2.346;2023-07-22T12:44:49;101211.94;;;29.55;26.09
62600;BME280;48671;48.922;2.346;2023-07-22T12:47:14;101213.25;;;29.83;25.31
62600;BME280;48671;48.922;2.346;2023-07-22T12:49:40;101230.34;;;29.82;24.45
62600;BME280;48671;48.922;2.346;2023-07-22T12:52:06;101218.66;;;29.67;25.35
62600;BME280;48671;48.922;2.346;2023-07-22T12:54:37;101213.09;;;29.77;25.54